Main page
METAR-TAF:

METAR-TAF

Airports :

Ljubljana, Slovenia

Ljubljana Jože Pučnik Airport

latitude: 46-13N, longitude: 014-29E, elevation: 385 m

Current weather observation

The report was made 49 minutes ago, at 21:30 UTC
Wind 6 kt from the West/Northwest
Temperature 1°C
Humidity 75%
Pressure 1025 hPa
Visibility 10 km or more
no clouds below 1500 m and no cumulonimbus

METAR: LJLJ 272130Z 29006KT CAVOK 01/M03 Q1025 NOSIG

Time: 00:19 (22:19 UTC)

Forecast

The report was made 2 hours and 19 minutes ago, at 20:00 UTC
Forecast valid from 27 at 21 UTC to 28 at 21 UTC
Wind 2 kt from variable directions
Visibility 10 km or more
no clouds below 1500 m and no cumulonimbus
Becoming
from 28 at 08 UTC to 28 at 10 UTC
Wind 5 kt from the East/Southeast
Becoming
from 28 at 17 UTC to 28 at 19 UTC
Wind 2 kt from variable directions

TAF: LJLJ 272000Z 2721/2821 VRB02KT CAVOK BECMG 2808/2810 12005KT BECMG 2817/2819 VRB02KT

Weather observations and forecasts of more than 4000 airports (METAR and TAF reports).

The available stations are represented by yellow and red dots on the map.

Hover mouse over dot to see the name of the station.

Then click to see weather observations and forecasts.

To change the map : click on the green buttons with a black cross to zoom in, on the green button with a dash to zoom out, or on the green arrows for adjacent maps.


METAR-TAF: